createdAt,value
2022-10-06T00:01:17.383Z,99635.59
2022-10-06T00:03:46.588Z,99640.28
2022-10-06T00:06:17.751Z,99642.16
2022-10-06T00:08:47.099Z,99636.84
2022-10-06T00:11:17.342Z,99644.09
2022-10-06T00:13:45.207Z,99635.38
2022-10-06T00:16:21.600Z,99639.72
2022-10-06T00:18:49.934Z,99644.56
2022-10-06T00:21:17.788Z,99642.84
2022-10-06T00:23:45.703Z,99651.97
2022-10-06T00:26:17.292Z,99648.69
2022-10-06T00:28:48.275Z,99641.31
2022-10-06T00:31:19.276Z,99643.84
2022-10-06T00:33:48.353Z,99650.16
2022-10-06T00:36:15.960Z,99654.28
2022-10-06T00:38:43.602Z,99658.50
2022-10-06T00:41:18.155Z,99666.28
2022-10-06T00:43:54.768Z,99659.22
2022-10-06T00:46:53.546Z,99666.38
2022-10-06T00:49:47.531Z,99666.75
2022-10-06T00:52:21.360Z,99675.84
2022-10-06T00:54:48.637Z,99679.72
2022-10-06T00:57:16.399Z,99677.38
2022-10-06T00:59:44.115Z,99678.03
2022-10-06T01:02:57.213Z,99676.81
2022-10-06T01:05:33.464Z,99679.34
2022-10-06T01:08:01.880Z,99683.84
2022-10-06T01:10:35.266Z,99679.09
2022-10-06T01:13:03.326Z,99683.94
2022-10-06T01:15:30.852Z,99684.56
2022-10-06T01:18:13.361Z,99680.69
2022-10-06T01:20:52.058Z,99679.00
2022-10-06T01:23:20.447Z,99685.31
2022-10-06T01:25:53.983Z,99686.72
2022-10-06T01:28:21.761Z,99688.06
2022-10-06T01:30:55.761Z,99690.84
2022-10-06T01:33:24.514Z,99695.44
2022-10-06T01:35:53.794Z,99685.63
2022-10-06T01:38:23.287Z,99689.53
2022-10-06T01:40:56.084Z,99686.84
2022-10-06T01:43:23.463Z,99695.88
2022-10-06T01:45:59.049Z,99696.06
2022-10-06T01:48:28.056Z,99701.28
2022-10-06T01:50:57.921Z,99704.41
2022-10-06T01:53:25.323Z,99716.47
2022-10-06T01:55:59.367Z,99717.88
2022-10-06T01:58:28.473Z,99711.56
2022-10-06T02:00:56.252Z,99720.19
2022-10-06T02:03:23.510Z,99711.06
2022-10-06T02:05:50.807Z,99719.84
2022-10-06T02:08:18.263Z,99711.44
2022-10-06T02:10:47.292Z,99712.81
2022-10-06T02:13:26.491Z,99723.81
2022-10-06T02:16:00.532Z,99716.28
2022-10-06T02:18:28.260Z,99720.41
2022-10-06T02:20:55.839Z,99716.75
2022-10-06T02:23:23.081Z,99721.75
2022-10-06T02:25:50.471Z,99722.03
2022-10-06T02:28:17.951Z,99732.34
2022-10-06T02:30:45.796Z,99735.72
2022-10-06T02:33:13.113Z,99736.47
2022-10-06T02:35:42.864Z,99738.44
2022-10-06T02:38:10.424Z,99749.38
2022-10-06T02:40:37.590Z,99740.34
2022-10-06T02:43:05.386Z,99756.91
2022-10-06T02:45:32.616Z,99763.09
2022-10-06T02:47:59.799Z,99767.38
2022-10-06T02:50:27.493Z,99774.94
2022-10-06T02:52:55.303Z,99775.94
2022-10-06T02:55:22.798Z,99787.63
2022-10-06T02:57:50.010Z,99798.38
2022-10-06T03:00:17.635Z,99792.06
2022-10-06T03:02:48.677Z,99783.19
2022-10-06T03:05:16.020Z,99800.28
2022-10-06T03:07:43.282Z,99786.97
2022-10-06T03:10:10.815Z,99792.50
2022-10-06T03:12:38.582Z,99801.19
2022-10-06T03:15:08.504Z,99797.03
2022-10-06T03:17:35.911Z,99803.72
2022-10-06T03:20:04.282Z,99823.88
2022-10-06T03:22:33.002Z,99820.97
2022-10-06T03:25:00.480Z,99820.16
2022-10-06T03:27:27.729Z,99819.56
2022-10-06T03:30:00.360Z,99827.84
2022-10-06T03:32:29.957Z,99838.91
2022-10-06T03:34:57.185Z,99841.13
2022-10-06T03:37:24.582Z,99845.69
2022-10-06T03:39:52.145Z,99838.44
2022-10-06T03:42:20.176Z,99841.34
2022-10-06T03:44:48.079Z,99852.50
2022-10-06T03:47:17.401Z,99857.19
2022-10-06T03:49:45.582Z,99863.59
2022-10-06T03:52:15.162Z,99860.22
2022-10-06T03:54:42.569Z,99871.28
2022-10-06T03:57:09.765Z,99861.84
2022-10-06T03:59:43.824Z,99872.75
2022-10-06T04:02:11.390Z,99873.41
2022-10-06T04:04:38.960Z,99879.63
2022-10-06T04:07:11.286Z,99888.59
2022-10-06T04:09:43.469Z,99890.44
2022-10-06T04:12:12.646Z,99891.19
2022-10-06T04:14:41.915Z,99894.47
2022-10-06T04:17:09.408Z,99901.31
2022-10-06T04:19:39.701Z,99901.44
2022-10-06T04:22:07.192Z,99909.53
2022-10-06T04:24:35.233Z,99908.97
2022-10-06T04:27:21.641Z,99912.94
2022-10-06T04:30:03.895Z,99907.47
2022-10-06T04:32:32.519Z,99911.13
2022-10-06T04:34:59.690Z,99918.22
2022-10-06T04:37:28.934Z,99922.97
2022-10-06T04:39:56.772Z,99920.19
2022-10-06T04:42:24.275Z,99921.69
2022-10-06T04:44:51.525Z,99931.13
2022-10-06T04:47:18.739Z,99922.00
2022-10-06T04:49:47.111Z,99921.63
2022-10-06T04:52:14.687Z,99922.19
2022-10-06T04:54:42.544Z,99926.44
2022-10-06T04:57:09.868Z,99939.06
2022-10-06T05:00:07.865Z,99931.47
2022-10-06T05:02:38.620Z,99933.50
2022-10-06T05:05:07.903Z,99947.75
2022-10-06T05:07:35.337Z,99947.59
2022-10-06T05:10:03.077Z,99948.16
2022-10-06T05:12:31.523Z,99946.22
2022-10-06T05:14:59.687Z,99952.47
2022-10-06T05:17:27.898Z,99952.34
2022-10-06T05:19:55.434Z,99959.03
2022-10-06T05:22:26.630Z,99953.66
2022-10-06T05:24:54.285Z,99966.00
2022-10-06T05:27:21.856Z,99965.88
2022-10-06T05:29:49.228Z,99984.41
2022-10-06T05:32:16.618Z,99977.81
2022-10-06T05:34:44.053Z,99978.88
2022-10-06T05:37:11.405Z,99979.75
2022-10-06T05:39:39.639Z,99990.44
2022-10-06T05:42:06.906Z,99993.19
2022-10-06T05:44:34.124Z,99999.72
2022-10-06T05:47:06.562Z,99997.69
2022-10-06T05:49:34.782Z,100005.72
2022-10-06T05:52:04.324Z,100010.69
2022-10-06T05:54:34.154Z,100013.22
2022-10-06T05:57:01.400Z,100007.66
2022-10-06T05:59:30.613Z,100017.13
2022-10-06T06:02:00.150Z,100026.84
2022-10-06T06:04:38.183Z,100016.66
2022-10-06T06:07:06.034Z,100030.00
2022-10-06T06:09:34.036Z,100036.19
2022-10-06T06:12:09.129Z,100035.59
2022-10-06T06:15:06.399Z,100039.22
2022-10-06T06:17:39.321Z,100039.91
2022-10-06T06:20:08.208Z,100039.09
2022-10-06T06:23:01.842Z,100048.47
2022-10-06T06:25:30.699Z,100049.91
2022-10-06T06:27:58.614Z,100059.03
2022-10-06T06:30:26.584Z,100056.22
2022-10-06T06:32:58.079Z,100059.88
2022-10-06T06:35:25.347Z,100066.53
2022-10-06T06:37:53.057Z,100061.78
2022-10-06T06:40:20.411Z,100076.94
2022-10-06T06:42:51.615Z,100070.69
2022-10-06T06:45:41.099Z,100087.75
2022-10-06T06:48:24.146Z,100087.16
2022-10-06T06:50:58.609Z,100086.97
2022-10-06T06:53:28.007Z,100092.41
2022-10-06T06:55:58.276Z,100093.75
2022-10-06T06:58:25.794Z,100100.53
2022-10-06T07:00:53.415Z,100099.94
2022-10-06T07:03:55.622Z,100105.38
2022-10-06T07:06:16.276Z,100101.31
2022-10-06T07:08:48.757Z,100113.78
2022-10-06T07:11:34.744Z,100118.97
2022-10-06T07:14:09.557Z,100123.78
2022-10-06T07:16:55.824Z,100124.56
2022-10-06T07:19:41.856Z,100126.03
2022-10-06T07:22:28.468Z,100136.22
2022-10-06T07:25:08.359Z,100144.09
2022-10-06T07:27:51.097Z,100147.66
2022-10-06T07:30:30.078Z,100144.16
2022-10-06T07:33:05.044Z,100152.16
2022-10-06T07:35:33.191Z,100151.00
2022-10-06T07:38:08.050Z,100153.00
2022-10-06T07:41:17.682Z,100155.72
2022-10-06T07:43:47.023Z,100158.72
2022-10-06T07:46:19.408Z,100156.34
2022-10-06T07:49:05.415Z,100160.94
2022-10-06T07:51:33.099Z,100156.94
2022-10-06T07:54:03.207Z,100166.88
2022-10-06T07:56:35.126Z,100171.78
2022-10-06T07:59:02.903Z,100160.59
2022-10-06T08:01:30.356Z,100169.38
2022-10-06T08:03:57.995Z,100175.91
2022-10-06T08:06:25.226Z,100187.06
2022-10-06T08:08:53.411Z,100171.09
2022-10-06T08:11:22.916Z,100179.09
2022-10-06T08:13:52.115Z,100179.31
2022-10-06T08:16:23.829Z,100181.91
2022-10-06T08:18:55.979Z,100181.00
2022-10-06T08:21:34.456Z,100189.50
2022-10-06T08:24:02.434Z,100190.34
2022-10-06T08:26:31.107Z,100194.63
2022-10-06T08:29:03.163Z,100196.84
2022-10-06T08:31:32.129Z,100198.63
2022-10-06T08:33:59.544Z,100206.53
2022-10-06T08:36:31.948Z,100195.50
2022-10-06T08:39:01.204Z,100201.31
2022-10-06T08:41:50.800Z,100211.66
2022-10-06T08:44:49.167Z,100208.84
2022-10-06T08:47:25.520Z,100213.72
2022-10-06T08:49:55.217Z,100221.78
2022-10-06T08:53:14.025Z,100219.09
2022-10-06T08:55:58.546Z,100221.28
2022-10-06T08:58:58.308Z,100231.06
2022-10-06T09:01:44.888Z,100231.19
2022-10-06T09:04:28.740Z,100226.38
2022-10-06T09:07:43.837Z,100231.78
2022-10-06T09:10:58.684Z,100228.34
2022-10-06T09:13:47.308Z,100227.72
2022-10-06T09:16:22.002Z,100232.13
2022-10-06T09:19:09.100Z,100225.19
2022-10-06T09:22:05.020Z,100236.22
2022-10-06T09:24:47.101Z,100234.16
2022-10-06T09:27:36.571Z,100233.38
2022-10-06T09:30:06.218Z,100235.38
2022-10-06T09:32:34.788Z,100235.59
2022-10-06T09:35:20.059Z,100249.41
2022-10-06T09:38:08.513Z,100248.25
2022-10-06T09:40:51.049Z,100242.13
2022-10-06T09:43:29.378Z,100254.63
2022-10-06T09:46:56.391Z,100252.94
2022-10-06T09:49:26.931Z,100264.69
2022-10-06T09:52:16.157Z,100254.13
2022-10-06T09:54:44.761Z,100261.19
2022-10-06T09:57:26.975Z,100258.09
2022-10-06T09:59:59.277Z,100258.66
2022-10-06T10:03:44.514Z,100256.81
2022-10-06T10:07:33.951Z,100256.63
2022-10-06T10:10:24.543Z,100257.78
2022-10-06T10:13:00.112Z,100259.53
2022-10-06T10:15:38.243Z,100262.50
2022-10-06T10:18:14.183Z,100263.03
2022-10-06T10:20:56.065Z,100254.53
2022-10-06T10:24:38.818Z,100249.81
2022-10-06T10:28:21.398Z,100254.13
2022-10-06T10:31:35.865Z,100260.13
2022-10-06T10:34:43.154Z,100261.84
2022-10-06T10:38:29.445Z,100258.25
2022-10-06T10:42:12.084Z,100251.53
2022-10-06T10:44:55.170Z,100250.06
2022-10-06T10:47:38.711Z,100262.97
2022-10-06T10:50:21.418Z,100253.19
2022-10-06T10:52:57.273Z,100253.56
2022-10-06T10:55:38.676Z,100259.38
2022-10-06T10:58:26.900Z,100258.84
2022-10-06T11:01:25.543Z,100250.91
2022-10-06T11:03:56.881Z,100253.41
2022-10-06T11:07:26.466Z,100244.66
2022-10-06T11:10:18.302Z,100239.31
2022-10-06T11:13:34.589Z,100251.41
2022-10-06T11:16:27.556Z,100245.91
2022-10-06T11:19:35.368Z,100235.84
2022-10-06T11:22:16.060Z,100247.91
2022-10-06T11:25:22.713Z,100249.47
2022-10-06T11:28:32.091Z,100246.69
2022-10-06T11:31:23.302Z,100242.91
2022-10-06T11:33:59.895Z,100245.31
2022-10-06T11:36:50.497Z,100238.06
2022-10-06T11:39:24.827Z,100236.03
2022-10-06T11:45:15.867Z,100225.25
2022-10-06T11:48:27.584Z,100223.00
2022-10-06T11:50:57.112Z,100216.25
2022-10-06T11:53:42.676Z,100203.13
2022-10-06T11:56:19.031Z,100213.94
2022-10-06T11:58:52.429Z,100200.13
2022-10-06T12:01:45.373Z,100206.63
2022-10-06T12:04:20.641Z,100205.00
2022-10-06T12:06:50.731Z,100211.38
2022-10-06T12:09:32.790Z,100198.00
2022-10-06T12:12:15.309Z,100208.63
2022-10-06T12:18:20.910Z,100200.94
2022-10-06T12:21:17.591Z,100202.41
2022-10-06T12:24:45.881Z,100202.03
2022-10-06T12:27:53.633Z,100200.34
2022-10-06T12:30:54.833Z,100200.41
2022-10-06T12:33:41.315Z,100192.00
2022-10-06T12:36:28.924Z,100192.16
2022-10-06T12:39:04.878Z,100199.03
2022-10-06T12:42:05.896Z,100195.53
2022-10-06T12:44:43.132Z,100187.78
2022-10-06T12:47:41.399Z,100184.56
2022-10-06T12:50:23.071Z,100186.88
2022-10-06T12:53:01.203Z,100187.34
2022-10-06T12:55:56.464Z,100180.88
2022-10-06T12:58:29.942Z,100181.25
2022-10-06T13:01:07.577Z,100175.78
2022-10-06T13:04:52.823Z,100173.09
2022-10-06T13:08:36.289Z,100172.16
2022-10-06T13:12:19.247Z,100181.25
2022-10-06T13:16:02.290Z,100173.09
2022-10-06T13:19:45.042Z,100170.09
2022-10-06T13:23:28.311Z,100163.31
2022-10-06T13:27:11.632Z,100170.25
2022-10-06T13:29:38.925Z,100166.13
2022-10-06T13:33:21.994Z,100166.09
2022-10-06T13:35:53.631Z,100159.34
2022-10-06T13:39:36.393Z,100157.41
2022-10-06T13:43:19.226Z,100163.50
2022-10-06T13:47:02.211Z,100153.66
2022-10-06T13:50:45.053Z,100157.88
2022-10-06T13:54:29.580Z,100160.25
2022-10-06T13:56:58.566Z,100163.94
2022-10-06T14:00:22.271Z,100159.50
2022-10-06T14:03:06.259Z,100149.28
2022-10-06T14:05:46.424Z,100157.66
2022-10-06T14:08:13.540Z,100154.63
2022-10-06T14:10:41.146Z,100147.50
2022-10-06T14:13:20.316Z,100150.53
2022-10-06T14:16:25.918Z,100155.03
2022-10-06T14:19:04.442Z,100147.50
2022-10-06T14:25:05.538Z,100150.22
2022-10-06T14:27:45.179Z,100152.34
2022-10-06T14:30:23.345Z,100140.88
2022-10-06T14:32:58.153Z,100140.25
2022-10-06T14:35:56.655Z,100135.50
2022-10-06T14:38:52.315Z,100142.38
2022-10-06T14:44:26.570Z,100138.34
2022-10-06T14:49:59.948Z,100121.63
2022-10-06T14:52:34.556Z,100131.41
2022-10-06T14:55:20.797Z,100128.09
2022-10-06T14:58:04.602Z,100136.69
2022-10-06T15:00:46.008Z,100133.66
2022-10-06T15:03:25.539Z,100126.69
2022-10-06T15:06:53.939Z,100133.31
2022-10-06T15:12:39.446Z,100128.63
2022-10-06T15:15:20.884Z,100129.44
2022-10-06T15:17:57.269Z,100131.00
2022-10-06T15:20:28.488Z,100128.44
2022-10-06T15:23:04.706Z,100120.25
2022-10-06T15:25:53.847Z,100120.38
2022-10-06T15:28:54.625Z,100122.31
2022-10-06T15:31:44.347Z,100119.19
2022-10-06T15:34:15.850Z,100117.19
2022-10-06T15:37:09.316Z,100115.22
2022-10-06T15:39:41.999Z,100110.53
2022-10-06T15:42:10.973Z,100117.09
2022-10-06T15:44:39.635Z,100113.13
2022-10-06T15:47:08.488Z,100113.97
2022-10-06T15:49:40.967Z,100112.28
2022-10-06T15:52:23.270Z,100110.53
2022-10-06T15:54:54.654Z,100112.81
2022-10-06T15:57:31.121Z,100107.09
2022-10-06T16:00:14.854Z,100113.25
2022-10-06T16:03:22.660Z,100109.19
2022-10-06T16:06:00.404Z,100107.47
2022-10-06T16:08:50.210Z,100102.69
2022-10-06T16:11:30.164Z,100099.59
2022-10-06T16:13:58.597Z,100104.38
2022-10-06T16:16:29.574Z,100104.09
2022-10-06T16:23:35.361Z,100102.06
2022-10-06T16:26:10.782Z,100109.88
2022-10-06T16:28:41.414Z,100112.44
2022-10-06T16:31:11.947Z,100105.66
2022-10-06T16:33:44.243Z,100106.50
2022-10-06T16:36:14.885Z,100106.47
2022-10-06T16:38:44.430Z,100105.94
2022-10-06T16:41:13.107Z,100104.25
2022-10-06T16:43:49.972Z,100111.66
2022-10-06T16:46:25.684Z,100109.63
2022-10-06T16:48:57.526Z,100108.22
2022-10-06T16:51:33.797Z,100111.63
2022-10-06T16:54:08.005Z,100106.25
2022-10-06T16:56:44.233Z,100116.16
2022-10-06T16:59:24.149Z,100110.22
2022-10-06T17:01:55.548Z,100108.84
2022-10-06T17:04:25.587Z,100117.84
2022-10-06T17:06:57.560Z,100122.88
2022-10-06T17:09:28.899Z,100118.72
2022-10-06T17:11:59.329Z,100122.09
2022-10-06T17:14:30.552Z,100122.31
2022-10-06T17:16:59.500Z,100129.34
2022-10-06T17:19:29.949Z,100125.06
2022-10-06T17:22:22.877Z,100119.44
2022-10-06T17:24:50.123Z,100126.72
2022-10-06T17:27:17.886Z,100126.75
2022-10-06T17:29:45.500Z,100134.25
2022-10-06T17:32:14.143Z,100132.94
2022-10-06T17:34:41.759Z,100135.69
2022-10-06T17:37:09.216Z,100134.56
2022-10-06T17:39:48.287Z,100137.44
2022-10-06T17:42:16.660Z,100138.97
2022-10-06T17:44:44.811Z,100139.31
2022-10-06T17:47:12.605Z,100135.94
2022-10-06T17:49:41.620Z,100137.28
2022-10-06T17:52:09.908Z,100132.75
2022-10-06T17:54:37.331Z,100130.59
2022-10-06T17:57:05.390Z,100126.34
2022-10-06T17:59:33.828Z,100133.97
2022-10-06T18:02:03.935Z,100127.03
2022-10-06T18:04:31.741Z,100126.63
2022-10-06T18:07:00.231Z,100126.25
2022-10-06T18:09:30.462Z,100129.13
2022-10-06T18:12:00.590Z,100129.91
2022-10-06T18:14:35.017Z,100126.31
2022-10-06T18:17:05.914Z,100126.34
2022-10-06T18:19:36.880Z,100116.41
2022-10-06T18:22:12.882Z,100120.16
2022-10-06T18:24:41.855Z,100127.44
2022-10-06T18:27:13.900Z,100122.41
2022-10-06T18:29:46.558Z,100119.63
2022-10-06T18:33:40.688Z,100117.66
2022-10-06T18:37:57.593Z,100118.34
2022-10-06T18:40:25.503Z,100114.69
2022-10-06T18:42:52.957Z,100121.19
2022-10-06T18:45:39.655Z,100123.47
2022-10-06T18:48:28.380Z,100120.84
2022-10-06T18:51:03.622Z,100122.84
2022-10-06T18:53:36.302Z,100126.25
2022-10-06T18:56:07.287Z,100116.66
2022-10-06T18:58:40.053Z,100115.25
2022-10-06T19:01:08.544Z,100111.31
2022-10-06T19:03:42.915Z,100120.75
2022-10-06T19:06:12.970Z,100113.41
2022-10-06T19:08:43.340Z,100118.53
2022-10-06T19:11:29.797Z,100120.78
2022-10-06T19:13:58.051Z,100119.38
2022-10-06T19:16:33.123Z,100125.09
2022-10-06T19:19:15.595Z,100120.09
2022-10-06T19:21:49.199Z,100123.44
2022-10-06T19:24:22.402Z,100122.91
2022-10-06T19:26:52.510Z,100123.75
2022-10-06T19:29:23.597Z,100121.91
2022-10-06T19:31:58.228Z,100125.63
2022-10-06T19:34:26.873Z,100123.94
2022-10-06T19:36:54.819Z,100125.41
2022-10-06T19:39:35.906Z,100126.47
2022-10-06T19:42:21.994Z,100121.63
2022-10-06T19:44:49.345Z,100129.34
2022-10-06T19:47:17.159Z,100129.94
2022-10-06T19:49:45.075Z,100127.25
2022-10-06T19:52:14.537Z,100122.13
2022-10-06T19:54:42.020Z,100124.72
2022-10-06T19:57:11.592Z,100126.59
2022-10-06T19:59:44.192Z,100118.13
2022-10-06T20:02:12.013Z,100120.66
2022-10-06T20:04:39.985Z,100123.03
2022-10-06T20:07:09.693Z,100123.00
2022-10-06T20:10:02.269Z,100124.81
2022-10-06T20:12:30.080Z,100119.56
2022-10-06T20:14:57.565Z,100116.34
2022-10-06T20:17:25.427Z,100113.94
2022-10-06T20:19:57.778Z,100117.94
2022-10-06T20:22:26.508Z,100127.88
2022-10-06T20:24:54.626Z,100124.66
2022-10-06T20:27:22.447Z,100125.47
2022-10-06T20:29:49.971Z,100125.41
2022-10-06T20:32:17.243Z,100122.31
2022-10-06T20:34:44.671Z,100120.50
2022-10-06T20:37:12.186Z,100115.22
2022-10-06T20:39:58.669Z,100120.09
2022-10-06T20:42:27.881Z,100121.97
2022-10-06T20:44:55.043Z,100126.09
2022-10-06T20:47:23.301Z,100126.56
2022-10-06T20:49:54.986Z,100120.84
2022-10-06T20:52:24.234Z,100119.56
2022-10-06T20:54:51.989Z,100118.06
2022-10-06T20:57:19.184Z,100121.25
2022-10-06T20:59:47.370Z,100119.97
2022-10-06T21:02:18.249Z,100109.13
2022-10-06T21:04:45.456Z,100117.28
2022-10-06T21:07:12.617Z,100118.63
2022-10-06T21:09:47.551Z,100127.88
2022-10-06T21:12:19.961Z,100118.28
2022-10-06T21:14:47.807Z,100116.44
2022-10-06T21:17:15.037Z,100107.06
2022-10-06T21:19:42.218Z,100113.91
2022-10-06T21:22:10.654Z,100109.66
2022-10-06T21:24:37.903Z,100098.28
2022-10-06T21:27:30.107Z,100102.34
2022-10-06T21:29:57.498Z,100104.09
2022-10-06T21:32:25.326Z,100107.00
2022-10-06T21:34:56.365Z,100103.53
2022-10-06T21:37:23.547Z,100095.69
2022-10-06T21:39:51.183Z,100089.25
2022-10-06T21:42:18.513Z,100089.16
2022-10-06T21:44:45.852Z,100083.75
2022-10-06T21:47:13.199Z,100085.19
2022-10-06T21:49:40.410Z,100082.06
2022-10-06T21:52:08.901Z,100079.59
2022-10-06T21:54:38.001Z,100077.94
2022-10-06T21:57:05.208Z,100076.34
2022-10-06T21:59:32.361Z,100079.03
2022-10-06T22:01:59.764Z,100067.16
2022-10-06T22:04:37.652Z,100062.13
2022-10-06T22:07:09.271Z,100061.91
2022-10-06T22:09:52.947Z,100057.03
2022-10-06T22:12:20.670Z,100064.78
2022-10-06T22:14:47.842Z,100060.53
2022-10-06T22:17:14.949Z,100054.56
2022-10-06T22:19:42.126Z,100050.72
2022-10-06T22:22:09.612Z,100055.78
2022-10-06T22:24:36.918Z,100045.28
2022-10-06T22:27:04.217Z,100049.75
2022-10-06T22:29:55.648Z,100050.25
2022-10-06T22:32:23.772Z,100040.16
2022-10-06T22:34:50.999Z,100049.31
2022-10-06T22:37:18.229Z,100049.47
2022-10-06T22:39:45.425Z,100049.16
2022-10-06T22:42:12.601Z,100046.41
2022-10-06T22:44:39.797Z,100044.50
2022-10-06T22:47:07.140Z,100044.97
2022-10-06T22:49:34.683Z,100042.72
2022-10-06T22:52:01.939Z,100042.63
2022-10-06T22:54:29.999Z,100043.25
2022-10-06T22:57:03.468Z,100033.72
2022-10-06T22:59:31.650Z,100029.31
2022-10-06T23:01:58.769Z,100024.56
2022-10-06T23:04:25.946Z,100016.69
2022-10-06T23:06:53.169Z,100022.28
2022-10-06T23:09:20.379Z,100016.84
2022-10-06T23:11:47.565Z,100013.88
2022-10-06T23:14:14.694Z,100006.38
2022-10-06T23:16:41.903Z,100006.06
2022-10-06T23:19:10.636Z,100006.22
2022-10-06T23:21:39.877Z,99995.19
2022-10-06T23:24:08.061Z,99996.03
2022-10-06T23:26:35.204Z,99993.63
2022-10-06T23:29:03.799Z,99983.63
2022-10-06T23:31:30.999Z,99989.81
2022-10-06T23:33:58.935Z,99985.50
2022-10-06T23:36:26.123Z,99994.03
2022-10-06T23:38:54.567Z,99983.59
2022-10-06T23:41:22.107Z,99985.41
2022-10-06T23:43:49.654Z,99987.91
2022-10-06T23:46:17.012Z,99983.22
2022-10-06T23:48:44.328Z,99984.56
2022-10-06T23:51:15.483Z,99981.88
2022-10-06T23:53:43.780Z,99977.66
2022-10-06T23:56:11.924Z,99980.88
2022-10-06T23:58:39.900Z,99970.50
